Time;durP1;ratioP1;P1;durP2;ratioP2;P2;SDS_P1;SDS_P2;PMS_P1;PMS_P2;Temp;Humidity;BMP_temperature;BMP_pressure;BME280_temperature;BME280_humidity;BME280_pressure;Samples;Min_cycle;Max_cycle;Signal;HPM_P1;HPM_P2
2024/03/05 00:01:04;;;;;;;28.47;16.07;;;;;;;11.09;80.93;98431.09;5092826;28;41034;-85
2024/03/05 00:03:33;;;;;;;32.23;17.37;;;;;;;11.07;80.86;98432.13;5093001;28;41519;-83
2024/03/05 00:06:00;;;;;;;30.90;17.70;;;;;;;11.03;81.50;98426.19;5091617;28;42718;-84
2024/03/05 00:08:28;;;;;;;31.47;17.00;;;;;;;11.01;81.34;98427.25;5074945;28;42996;-84
2024/03/05 00:10:56;;;;;;;28.87;16.23;;;;;;;11.01;81.76;98433.41;5074521;28;40031;-82
2024/03/05 00:13:24;;;;;;;32.37;18.73;;;;;;;10.99;82.23;98423.91;5091011;28;40873;-82
2024/03/05 00:15:52;;;;;;;32.33;18.80;;;;;;;10.98;81.96;98430.16;5090794;28;43882;-79
2024/03/05 00:18:20;;;;;;;34.53;18.83;;;;;;;10.91;81.76;98416.47;5091154;28;42822;-82
2024/03/05 00:20:49;;;;;;;24.63;14.97;;;;;;;10.93;81.59;98425.16;5092245;28;41336;-84
2024/03/05 00:23:17;;;;;;;33.53;18.77;;;;;;;11.01;81.96;98436.06;5091311;28;41887;-82
2024/03/05 00:25:44;;;;;;;33.63;17.73;;;;;;;11.01;82.26;98436.06;5091176;28;44058;-83
2024/03/05 00:28:11;;;;;;;33.20;17.93;;;;;;;11.01;82.66;98438.72;5092443;28;43322;-81
2024/03/05 00:30:38;;;;;;;29.13;18.07;;;;;;;11.00;82.52;98431.72;5091480;28;41056;-79
2024/03/05 00:33:06;;;;;;;31.33;17.30;;;;;;;10.90;82.53;98414.78;5074394;28;41090;-84
2024/03/05 00:35:34;;;;;;;31.30;17.70;;;;;;;10.99;82.25;98440.66;5091168;28;42682;-79
2024/03/05 00:38:03;;;;;;;35.73;18.60;;;;;;;10.96;82.84;98440.00;5091155;28;42421;-84
2024/03/05 00:40:31;;;;;;;32.03;18.13;;;;;;;10.93;83.33;98434.91;5092498;28;39947;-84
2024/03/05 00:42:58;;;;;;;32.07;17.30;;;;;;;10.89;83.67;98431.63;5091120;28;41677;-82
2024/03/05 00:45:26;;;;;;;29.40;16.83;;;;;;;10.75;84.10;98410.59;5091360;28;43734;-81
2024/03/05 00:47:53;;;;;;;39.53;20.20;;;;;;;10.81;84.42;98418.09;5090563;28;42228;-84
2024/03/05 00:50:22;;;;;;;32.70;18.23;;;;;;;10.78;84.49;98427.09;5092033;28;40911;-79
2024/03/05 00:53:26;;;;;;;29.10;16.50;;;;;;;10.79;83.97;98422.63;5029636;28;42397;-81
2024/03/05 00:55:54;;;;;;;27.57;16.07;;;;;;;10.81;83.73;98431.34;5078339;28;44136;-81
2024/03/05 00:58:21;;;;;;;30.57;15.87;;;;;;;10.81;83.79;98426.03;5090885;28;42546;-83
2024/03/05 01:00:49;;;;;;;25.50;15.23;;;;;;;10.82;83.30;98432.19;5073795;28;40065;-83
2024/03/05 01:03:16;;;;;;;26.90;16.77;;;;;;;10.83;83.28;98431.22;5090540;28;40771;-81
2024/03/05 01:05:44;;;;;;;28.67;16.87;;;;;;;10.78;83.56;98427.09;5091915;28;43110;-84
2024/03/05 01:08:12;;;;;;;26.80;15.37;;;;;;;10.81;83.35;98431.34;5090606;28;41428;-83
2024/03/05 01:10:45;;;;;;;28.43;16.23;;;;;;;10.80;84.07;98430.47;5090693;28;40936;-80
2024/03/05 01:13:12;;;;;;;31.50;17.53;;;;;;;10.79;83.52;98433.22;5087101;28;42121;-82
2024/03/05 01:15:40;;;;;;;30.37;16.73;;;;;;;10.78;83.87;98431.53;5090244;28;43357;-80
2024/03/05 01:18:07;;;;;;;28.67;16.77;;;;;;;10.79;83.38;98433.22;5091868;28;43260;-80
2024/03/05 01:20:38;;;;;;;32.60;18.47;;;;;;;10.78;83.35;98436.84;5073530;28;39961;-83
2024/03/05 01:23:07;;;;;;;27.43;15.73;;;;;;;10.77;83.48;98438.63;5087738;28;41881;-84
2024/03/05 01:25:35;;;;;;;21.97;13.63;;;;;;;10.77;82.95;98437.78;5093206;28;43733;-84
2024/03/05 01:28:07;;;;;;;29.33;17.03;;;;;;;10.78;83.43;98445.63;5076844;28;41474;-81
2024/03/05 01:30:35;;;;;;;25.77;14.23;;;;;;;10.67;83.29;98427.00;5090932;28;39944;-82
2024/03/05 01:33:05;;;;;;;28.90;16.27;;;;;;;10.63;83.16;98427.34;5093653;28;42798;-84
2024/03/05 01:35:32;;;;;;;30.70;17.70;;;;;;;10.74;83.38;98440.69;5094948;28;42424;-84
2024/03/05 01:38:00;;;;;;;25.40;14.30;;;;;;;10.62;83.55;98426.50;5094993;28;42328;-80
2024/03/05 01:40:28;;;;;;;30.57;16.97;;;;;;;10.72;84.06;98446.06;5093677;28;39826;-82
2024/03/05 01:42:55;;;;;;;31.30;17.00;;;;;;;10.72;83.56;98442.56;5093638;28;42782;-84
2024/03/05 01:45:24;;;;;;;29.27;17.10;;;;;;;10.72;83.48;98442.56;5093220;28;44437;-82
2024/03/05 01:47:52;;;;;;;29.63;16.27;;;;;;;10.64;83.47;98429.00;5094279;28;42198;-81
2024/03/05 01:50:20;;;;;;;29.17;16.53;;;;;;;10.75;83.29;98442.38;5094728;28;39787;-81
2024/03/05 01:52:47;;;;;;;26.27;15.07;;;;;;;10.72;83.19;98437.28;5093414;28;42715;-84
2024/03/05 01:55:17;;;;;;;31.63;17.33;;;;;;;10.79;82.89;98449.13;5094788;28;42869;-83
2024/03/05 01:57:49;;;;;;;31.67;16.17;;;;;;;10.77;83.70;98440.44;5093359;28;42807;-81
2024/03/05 02:00:20;;;;;;;26.23;15.40;;;;;;;10.78;83.22;98442.13;5091565;28;41188;-80
2024/03/05 02:02:50;;;;;;;31.20;17.10;;;;;;;10.80;83.25;98445.53;5076038;28;40671;-82
2024/03/05 02:05:18;;;;;;;25.80;15.80;;;;;;;10.78;83.22;98445.63;5093234;28;43799;-81
2024/03/05 02:07:47;;;;;;;25.27;15.23;;;;;;;10.78;83.13;98442.97;5093310;28;42691;-82
2024/03/05 02:10:15;;;;;;;26.73;15.47;;;;;;;10.77;83.39;98445.72;5098008;28;40038;-78
2024/03/05 02:12:42;;;;;;;30.97;17.03;;;;;;;10.64;83.60;98423.69;5104766;28;41920;-78
2024/03/05 02:15:11;;;;;;;27.93;15.30;;;;;;;10.75;83.22;98445.03;5095089;28;41672;-80
2024/03/05 02:17:40;;;;;;;32.70;16.93;;;;;;;10.65;83.49;98431.53;5094704;28;42435;-82
2024/03/05 02:20:12;;;;;;;26.43;14.80;;;;;;;10.75;83.04;98447.66;5094937;28;40852;-83
2024/03/05 02:22:42;;;;;;;29.43;16.17;;;;;;;10.76;83.49;98446.69;5093914;28;41713;-80
2024/03/05 02:25:10;;;;;;;28.57;16.57;;;;;;;10.65;83.70;98425.41;5092938;28;41904;-84
2024/03/05 02:27:39;;;;;;;28.07;16.10;;;;;;;10.75;83.75;98445.03;5075562;28;43993;-83
2024/03/05 02:30:11;;;;;;;32.27;16.03;;;;;;;10.75;83.31;98450.31;5093030;28;38969;-85
2024/03/05 02:32:40;;;;;;;29.00;16.00;;;;;;;10.75;83.47;98445.88;5094318;28;43735;-81
2024/03/05 02:35:08;;;;;;;27.07;15.23;;;;;;;10.76;83.39;98449.34;5096394;28;42901;-81
2024/03/05 02:37:37;;;;;;;25.77;14.90;;;;;;;10.76;83.17;98449.34;5096203;28;43305;-81
2024/03/05 02:40:08;;;;;;;27.70;14.67;;;;;;;10.66;83.05;98427.09;5097768;28;40188;-79
2024/03/05 02:42:35;;;;;;;29.33;16.10;;;;;;;10.65;83.34;98436.00;5097508;28;42328;-84
2024/03/05 02:45:04;;;;;;;30.10;16.33;;;;;;;10.75;83.43;98458.25;5094312;28;42758;-82
2024/03/05 02:47:32;;;;;;;30.83;16.87;;;;;;;10.72;83.42;98453.16;5092178;28;41470;-82
2024/03/05 02:50:00;;;;;;;29.93;16.40;;;;;;;10.72;83.81;98458.47;5075658;28;41655;-80
2024/03/05 08:30:51;;;;;;;22.17;12.13;;;;;;;10.26;100.00;98577.22;5171608;27;20543;-82
2024/03/05 08:33:21;;;;;;;20.13;11.87;;;;;;;10.99;99.21;98604.94;5152880;27;38917;-85
2024/03/05 08:35:54;;;;;;;20.77;12.30;;;;;;;11.66;93.42;98608.16;5152706;27;41841;-83
2024/03/05 08:38:22;;;;;;;19.00;11.47;;;;;;;12.18;89.04;98615.94;5170211;27;42725;-83
2024/03/05 08:40:54;;;;;;;19.93;11.70;;;;;;;12.59;85.50;98618.19;5169910;27;41116;-81
2024/03/05 08:43:22;;;;;;;20.10;12.40;;;;;;;12.88;82.45;98633.75;5152569;27;41629;-81
2024/03/05 08:45:51;;;;;;;18.13;10.93;;;;;;;13.10;79.96;98643.63;5152401;27;40686;-83
2024/03/05 08:48:19;;;;;;;15.80;9.77;;;;;;;13.26;79.10;98633.53;5169505;27;43406;-80
2024/03/05 08:50:47;;;;;;;17.07;11.00;;;;;;;13.42;77.72;98635.84;5171126;27;42038;-83
2024/03/05 08:53:15;;;;;;;16.13;10.10;;;;;;;13.38;76.47;98607.78;5152880;27;42410;-82
2024/03/05 08:55:43;;;;;;;20.10;11.70;;;;;;;13.33;75.08;98586.88;5170573;27;42928;-85
2024/03/05 08:58:10;;;;;;;18.33;10.43;;;;;;;13.67;75.02;98632.97;5171647;27;42796;-79
2024/03/05 09:00:38;;;;;;;18.87;11.50;;;;;;;13.86;73.81;98643.00;5152320;27;41595;-79
2024/03/05 09:03:07;;;;;;;16.07;10.47;;;;;;;13.66;72.47;98607.31;5170073;27;40727;-87
2024/03/05 09:05:35;;;;;;;18.23;10.80;;;;;;;13.98;72.01;98648.19;5169647;27;42630;-81
2024/03/05 09:08:03;;;;;;;15.50;9.57;;;;;;;14.00;71.98;98635.63;5152251;27;43203;-82
2024/03/05 09:10:31;;;;;;;16.57;10.60;;;;;;;14.05;71.02;98629.09;5152097;27;41469;-82
2024/03/05 09:12:59;;;;;;;16.77;10.30;;;;;;;14.18;70.14;98648.44;5170827;27;40748;-84
2024/03/05 09:15:26;;;;;;;18.57;11.33;;;;;;;14.16;70.16;98621.91;5169153;27;42543;-84
2024/03/05 09:17:54;;;;;;;16.57;10.97;;;;;;;13.98;69.14;98589.63;5169811;27;42710;-82
2024/03/05 09:20:23;;;;;;;15.70;10.10;;;;;;;14.35;68.48;98651.41;5169470;27;42823;-87
2024/03/05 09:22:50;;;;;;;16.97;11.00;;;;;;;14.40;67.73;98651.09;5152424;27;40468;-83
2024/03/05 09:25:18;;;;;;;17.33;11.40;;;;;;;14.45;67.37;98656.03;5170432;27;42604;-82
2024/03/05 09:27:45;;;;;;;18.97;11.80;;;;;;;14.43;66.25;98658.84;5169280;27;42482;-81
2024/03/05 09:30:18;;;;;;;15.10;10.17;;;;;;;14.51;66.54;98659.03;5168947;27;42410;-80
2024/03/05 09:32:46;;;;;;;17.37;10.83;;;;;;;14.51;65.27;98645.72;5152280;27;39230;-84
2024/03/05 09:35:15;;;;;;;18.23;10.87;;;;;;;14.60;65.05;98660.94;5152239;27;41524;-82
2024/03/05 09:37:45;;;;;;;17.07;11.43;;;;;;;14.67;64.58;98661.31;5169447;27;44308;-82
2024/03/05 09:40:16;;;;;;;17.83;10.87;;;;;;;14.76;64.57;98660.53;5166407;27;42384;-83
2024/03/05 09:42:44;;;;;;;17.97;11.43;;;;;;;14.83;63.68;98660.91;5155161;27;40293;-84
2024/03/05 09:45:15;;;;;;;17.07;11.07;;;;;;;14.86;63.55;98652.63;5156327;27;41899;-81
2024/03/05 09:47:44;;;;;;;16.00;10.13;;;;;;;14.96;63.77;98661.56;5137948;27;41736;-82
2024/03/05 09:50:13;;;;;;;16.43;10.10;;;;;;;14.98;63.04;98671.09;5137794;27;42182;-82
2024/03/05 09:52:43;;;;;;;17.87;10.97;;;;;;;14.83;62.35;98650.22;5138644;27;38918;-77
2024/03/05 09:55:12;;;;;;;17.83;11.23;;;;;;;14.94;62.82;98661.69;5156005;27;42895;-82
2024/03/05 09:57:41;;;;;;;17.80;10.67;;;;;;;14.88;62.40;98666.66;5154932;27;42575;-84
2024/03/05 10:00:15;;;;;;;18.43;10.77;;;;;;;14.92;62.90;98662.78;5155121;27;43375;-85
2024/03/05 10:02:42;;;;;;;18.33;11.10;;;;;;;14.97;62.30;98668.56;5137850;27;39014;-80
2024/03/05 10:05:12;;;;;;;16.83;10.90;;;;;;;14.97;61.95;98669.41;5154843;27;42171;-82
2024/03/05 10:07:40;;;;;;;17.20;10.83;;;;;;;14.97;62.07;98672.06;5155289;27;43307;-84
2024/03/05 10:10:10;;;;;;;16.47;10.60;;;;;;;14.99;61.65;98677.28;5136905;27;41416;-84
2024/03/05 10:12:42;;;;;;;18.23;11.53;;;;;;;14.98;61.52;98675.59;5152975;27;41065;-85
2024/03/05 10:15:17;;;;;;;18.67;11.60;;;;;;;14.96;61.38;98669.56;5137254;27;40787;-81
2024/03/05 10:17:49;;;;;;;15.83;10.37;;;;;;;15.04;61.46;98669.75;5137751;27;43109;-83
2024/03/05 10:20:26;;;;;;;16.13;10.73;;;;;;;15.22;61.92;98670.88;5137616;27;41996;-78
2024/03/05 10:23:02;;;;;;;19.07;11.90;;;;;;;15.38;60.95;98673.94;5153046;27;40412;-79
2024/03/05 10:25:31;;;;;;;17.60;11.47;;;;;;;15.52;60.98;98677.25;5155876;27;41323;-84
2024/03/05 10:28:00;;;;;;;17.00;11.43;;;;;;;15.52;59.55;98672.75;5161520;27;43155;-78
2024/03/05 10:30:31;;;;;;;16.07;10.10;;;;;;;15.72;59.37;98692.44;5145634;27;41827;-81
2024/03/05 10:33:00;;;;;;;16.53;10.53;;;;;;;15.84;59.08;98691.38;5152058;27;41288;-78
2024/03/05 10:35:29;;;;;;;17.10;10.93;;;;;;;15.95;57.89;98677.09;5136825;27;42207;-80
2024/03/05 10:37:58;;;;;;;14.80;9.70;;;;;;;16.04;58.38;98677.16;5154549;27;42110;-81
2024/03/05 10:40:27;;;;;;;15.37;9.37;;;;;;;16.14;57.94;98686.03;5154354;27;41627;-84
2024/03/05 10:42:58;;;;;;;14.70;9.70;;;;;;;16.27;57.77;98688.47;5154244;27;40281;-79
2024/03/05 10:45:28;;;;;;;16.70;10.07;;;;;;;16.38;56.68;98684.84;5154013;27;41058;-83
2024/03/05 10:48:02;;;;;;;14.97;9.27;;;;;;;16.60;56.90;98691.78;5136392;27;42885;-82
2024/03/05 10:50:30;;;;;;;13.93;9.37;;;;;;;16.79;56.34;98690.03;5153208;27;42219;-82
2024/03/05 10:52:58;;;;;;;15.70;9.60;;;;;;;16.93;55.28;98691.47;5153150;27;40024;-81
2024/03/05 10:55:34;;;;;;;16.57;10.17;;;;;;;17.03;55.32;98691.47;5153688;27;42015;-80
2024/03/05 10:58:26;;;;;;;13.13;8.90;;;;;;;17.10;55.37;98692.56;5154642;27;43738;-82
2024/03/05 11:00:57;;;;;;;13.27;9.47;;;;;;;17.20;54.39;98694.25;5151068;27;42291;-82
2024/03/05 11:03:38;;;;;;;14.17;9.10;;;;;;;17.28;54.50;98695.41;5151831;27;41132;-79
2024/03/05 11:06:07;;;;;;;15.03;9.87;;;;;;;17.27;54.21;98678.50;5151900;27;42453;-79
2024/03/05 11:08:37;;;;;;;13.83;8.77;;;;;;;17.47;54.00;98688.19;5136229;27;41931;-84
2024/03/05 11:11:10;;;;;;;14.27;9.63;;;;;;;17.51;53.84;98678.88;5153817;27;41515;-83
2024/03/05 11:13:40;;;;;;;14.37;9.17;;;;;;;17.65;53.78;98699.03;5150961;27;41432;-80
2024/03/05 11:16:09;;;;;;;14.40;9.60;;;;;;;17.56;53.70;98698.03;5153899;27;40926;-82
2024/03/05 11:18:41;;;;;;;14.27;9.40;;;;;;;17.41;53.93;98679.88;5153396;27;41646;-81
2024/03/05 11:21:09;;;;;;;14.73;9.37;;;;;;;17.44;53.96;98685.78;5153463;27;42407;-79
2024/03/05 11:23:39;;;;;;;17.73;9.50;;;;;;;17.40;54.22;98683.56;5153507;27;40527;-81
2024/03/05 11:26:07;;;;;;;15.23;9.67;;;;;;;17.21;54.67;98668.34;5153634;27;41711;-84
2024/03/05 11:28:36;;;;;;;14.70;9.20;;;;;;;17.05;54.45;98678.78;5134915;27;42032;-83
2024/03/05 11:31:16;;;;;;;15.80;9.10;;;;;;;16.82;55.50;98676.34;5151156;27;42157;-81
2024/03/05 11:33:44;;;;;;;14.50;9.67;;;;;;;16.59;56.38;98669.53;5150567;27;40963;-86
2024/03/05 11:36:20;;;;;;;12.97;8.10;;;;;;;16.39;56.70;98655.31;5153277;27;44334;-84
2024/03/05 11:39:05;;;;;;;13.27;8.63;;;;;;;16.50;57.21;98673.06;5135525;27;42957;-82
2024/03/05 11:41:34;;;;;;;13.67;8.83;;;;;;;16.50;56.98;98668.56;5136105;27;41195;-83
2024/03/05 11:44:03;;;;;;;14.87;9.27;;;;;;;16.49;56.83;98663.34;5135874;27;40794;-81
2024/03/05 11:46:46;;;;;;;13.37;8.47;;;;;;;16.35;57.41;98642.34;5153311;27;41800;-86
2024/03/05 11:49:14;;;;;;;13.60;8.83;;;;;;;16.41;57.98;98664.03;5152644;27;43083;-84
2024/03/05 11:51:43;;;;;;;11.73;7.37;;;;;;;16.28;57.78;98651.91;5153164;27;42437;-83
2024/03/05 11:54:13;;;;;;;12.50;7.80;;;;;;;16.07;57.94;98650.13;5153038;27;41056;-81
2024/03/05 11:56:42;;;;;;;11.83;8.23;;;;;;;15.89;57.56;98661.59;5153411;27;42434;-83
2024/03/05 11:59:10;;;;;;;13.13;8.30;;;;;;;15.53;58.59;98660.25;5152819;27;42902;-86
2024/03/05 12:01:41;;;;;;;8.30;5.67;;;;;;;14.97;59.08;98647.22;5153031;27;42521;-83
2024/03/05 12:04:11;;;;;;;6.47;4.80;;;;;;;14.59;61.22;98653.91;5152544;27;39951;-81
2024/03/05 12:06:40;;;;;;;6.20;3.80;;;;;;;14.22;62.80;98633.88;5154503;27;41554;-80
2024/03/05 12:09:18;;;;;;;5.47;3.70;;;;;;;14.10;63.54;98645.53;5153935;27;43759;-81
2024/03/05 12:12:04;;;;;;;4.67;3.10;;;;;;;13.88;65.17;98633.94;5150732;27;42055;-82
2024/03/05 12:14:34;;;;;;;5.67;4.10;;;;;;;13.80;66.05;98624.88;5152339;27;38729;-79
2024/03/05 12:17:07;;;;;;;4.63;3.17;;;;;;;13.76;67.36;98626.91;5153668;27;42888;-82
2024/03/05 12:19:37;;;;;;;7.50;3.90;;;;;;;13.60;67.79;98615.78;5151203;27;43745;-78
2024/03/05 12:22:06;;;;;;;4.53;3.10;;;;;;;13.63;68.25;98621.72;5153000;27;41897;-80
2024/03/05 12:24:34;;;;;;;5.43;3.73;;;;;;;13.59;69.21;98622.09;5152485;27;39056;-80
2024/03/05 12:27:02;;;;;;;5.37;3.17;;;;;;;13.51;68.93;98625.34;5152540;27;41370;-78
2024/03/05 12:29:33;;;;;;;6.43;4.13;;;;;;;13.46;69.64;98613.38;5152010;27;44112;-80
2024/03/05 12:32:04;;;;;;;7.60;3.70;;;;;;;13.48;69.88;98616.75;5149148;27;43486;-81
2024/03/05 12:34:41;;;;;;;4.93;3.50;;;;;;;13.52;71.03;98618.19;5135010;27;39560;-79
2024/03/05 12:37:09;;;;;;;5.60;3.90;;;;;;;13.50;71.16;98610.34;5153455;27;41964;-82
2024/03/05 12:39:37;;;;;;;7.07;4.33;;;;;;;13.52;72.19;98612.88;5151762;27;41928;-81
2024/03/05 12:42:07;;;;;;;10.00;5.30;;;;;;;13.56;71.80;98619.66;5134570;27;43597;-79
2024/03/05 12:44:36;;;;;;;9.57;6.10;;;;;;;13.58;72.33;98612.41;5152057;27;40354;-82
2024/03/05 12:47:06;;;;;;;10.60;6.50;;;;;;;13.57;73.49;98608.06;5134963;27;42586;-80
2024/03/05 12:49:38;;;;;;;10.47;6.60;;;;;;;13.47;74.25;98617.75;5151624;27;43642;-81
2024/03/05 12:52:08;;;;;;;9.23;5.77;;;;;;;13.39;74.89;98606.81;5149122;27;42538;-82
2024/03/05 12:54:35;;;;;;;11.63;7.13;;;;;;;13.27;75.42;98611.28;5152279;27;39267;-79
2024/03/05 12:57:04;;;;;;;9.00;5.77;;;;;;;13.17;75.65;98619.13;5152073;27;44052;-80
2024/03/05 12:59:32;;;;;;;11.53;5.93;;;;;;;13.08;76.03;98619.81;5134277;27;41285;-82
2024/03/05 13:01:59;;;;;;;7.83;5.13;;;;;;;12.98;76.37;98618.81;5134369;27;42418;-82
2024/03/05 13:04:27;;;;;;;9.63;4.87;;;;;;;12.85;76.15;98629.53;5151839;27;39767;-77
2024/03/05 13:06:54;;;;;;;7.40;4.67;;;;;;;12.75;76.65;98633.81;5151469;27;42525;-79
2024/03/05 13:09:23;;;;;;;8.20;5.40;;;;;;;12.63;77.58;98623.25;5151603;27;42077;-79
2024/03/05 13:11:52;;;;;;;9.77;6.47;;;;;;;12.48;78.10;98628.78;5134236;27;41287;-78
2024/03/05 13:14:19;;;;;;;10.87;6.70;;;;;;;12.37;78.70;98628.69;5152051;27;39868;-80
2024/03/05 13:16:47;;;;;;;10.03;6.33;;;;;;;12.26;80.51;98622.47;5153762;27;41751;-80
2024/03/05 13:19:14;;;;;;;11.43;6.30;;;;;;;12.17;80.71;98622.19;5137339;27;43080;-78
2024/03/05 13:21:42;;;;;;;11.00;6.57;;;;;;;12.10;81.18;98620.09;5155122;27;41103;-80
2024/03/05 13:24:12;;;;;;;12.13;6.83;;;;;;;12.13;81.73;98619.88;5155839;27;40297;-83
2024/03/05 13:26:42;;;;;;;8.50;5.87;;;;;;;12.10;81.83;98625.41;5154988;27;41774;-80
2024/03/05 13:29:10;;;;;;;11.87;6.20;;;;;;;12.07;81.40;98626.47;5136837;27;42067;-80
2024/03/05 13:31:38;;;;;;;8.63;5.90;;;;;;;12.04;81.41;98631.16;5156078;27;43126;-82
2024/03/05 13:34:08;;;;;;;7.03;5.10;;;;;;;12.09;81.30;98627.22;5154574;27;42099;-78
2024/03/05 13:36:36;;;;;;;8.70;5.70;;;;;;;12.07;81.82;98628.28;5155037;27;42271;-79
2024/03/05 13:39:08;;;;;;;8.13;5.20;;;;;;;12.03;81.58;98634.75;5136872;27;44205;-78
2024/03/05 13:41:47;;;;;;;6.37;4.57;;;;;;;11.89;82.39;98627.78;5151573;27;42408;-80
2024/03/05 13:44:14;;;;;;;5.83;4.00;;;;;;;11.91;83.18;98635.63;5136995;27;38951;-81
2024/03/05 13:46:43;;;;;;;6.57;4.40;;;;;;;11.82;83.64;98632.69;5137259;27;40773;-80
2024/03/05 13:49:12;;;;;;;7.53;4.60;;;;;;;11.72;84.62;98634.28;5154664;27;42942;-81
2024/03/05 13:51:39;;;;;;;6.57;4.87;;;;;;;11.65;84.93;98637.44;5155619;27;42225;-80
2024/03/05 13:54:07;;;;;;;7.47;4.50;;;;;;;11.61;85.63;98634.19;5154696;27;40649;-78
2024/03/05 13:56:34;;;;;;;6.63;3.93;;;;;;;11.56;85.75;98638.09;5156015;27;41600;-79
2024/03/05 13:59:04;;;;;;;6.70;4.23;;;;;;;11.49;86.36;98635.91;5137227;27;41933;-79
2024/03/05 14:01:32;;;;;;;5.50;4.23;;;;;;;11.42;86.90;98629.31;5154436;27;42162;-80
2024/03/05 14:03:59;;;;;;;6.37;4.40;;;;;;;11.35;86.84;98629.84;5137131;27;39866;-80
2024/03/05 14:06:27;;;;;;;6.63;4.33;;;;;;;11.35;88.00;98643.09;5137451;27;41951;-78
2024/03/05 14:08:56;;;;;;;6.73;4.63;;;;;;;11.34;88.20;98644.91;5136694;27;42013;-80
2024/03/05 14:11:25;;;;;;;6.53;4.20;;;;;;;11.30;87.96;98645.22;5154277;27;42576;-80
2024/03/05 14:13:53;;;;;;;5.00;3.87;;;;;;;11.26;88.59;98641.06;5152546;27;40742;-79
2024/03/05 14:16:22;;;;;;;5.30;3.67;;;;;;;11.15;87.59;98637.34;5154000;27;42124;-81
2024/03/05 14:18:50;;;;;;;5.07;3.20;;;;;;;11.14;88.26;98650.72;5152723;27;42972;-78
2024/03/05 14:21:17;;;;;;;5.13;3.73;;;;;;;11.00;88.05;98638.38;5153550;27;42928;-78
2024/03/05 14:23:46;;;;;;;4.20;2.70;;;;;;;11.08;88.19;98648.50;5132502;27;39525;-78
2024/03/05 14:26:14;;;;;;;4.33;3.07;;;;;;;11.08;88.31;98657.28;5115821;27;42466;-79
2024/03/05 14:28:41;;;;;;;6.57;3.67;;;;;;;11.08;88.62;98649.34;5115357;27;41953;-80
2024/03/05 14:31:12;;;;;;;5.30;4.10;;;;;;;11.08;89.37;98652.00;5133296;27;41113;-80
2024/03/05 14:33:40;;;;;;;6.23;3.97;;;;;;;11.03;89.84;98648.78;5132745;27;38988;-79
2024/03/05 14:36:09;;;;;;;6.37;4.23;;;;;;;11.15;89.58;98655.06;5134670;27;41587;-79
2024/03/05 14:38:37;;;;;;;6.53;4.43;;;;;;;11.20;89.44;98660.91;5132652;27;42939;-80
2024/03/05 14:41:05;;;;;;;6.30;4.43;;;;;;;11.27;88.80;98661.31;5133052;27;41353;-79
2024/03/05 14:43:33;;;;;;;6.97;4.83;;;;;;;11.30;89.31;98658.47;5134104;27;39927;-79
2024/03/05 14:46:01;;;;;;;5.33;3.83;;;;;;;11.38;88.77;98656.13;5134352;27;43138;-82
2024/03/05 14:48:28;;;;;;;8.00;3.97;;;;;;;11.44;88.54;98663.69;5132577;27;42876;-82
2024/03/05 14:50:57;;;;;;;7.10;4.87;;;;;;;11.47;88.30;98664.31;5134290;27;42596;-80
2024/03/05 14:53:27;;;;;;;7.03;4.87;;;;;;;11.49;89.05;98667.72;5133813;27;40179;-83
2024/03/05 14:55:54;;;;;;;6.77;4.53;;;;;;;11.51;88.53;98664.94;5115779;27;41876;-80
2024/03/05 14:58:22;;;;;;;7.60;5.33;;;;;;;11.51;89.13;98667.59;5115446;27;42838;-83
2024/03/05 15:00:49;;;;;;;7.50;5.70;;;;;;;11.48;88.83;98667.81;5115905;27;41652;-79
2024/03/05 15:03:18;;;;;;;8.10;5.57;;;;;;;11.50;88.56;98673.84;5132707;27;40109;-82
2024/03/05 15:05:46;;;;;;;8.83;5.90;;;;;;;11.51;88.53;98664.94;5132773;27;41950;-80
2024/03/05 15:08:15;;;;;;;8.90;6.20;;;;;;;11.52;88.48;98669.28;5133767;27;44151;-82
2024/03/05 15:10:45;;;;;;;8.70;5.70;;;;;;;11.51;88.30;98649.03;5129240;27;43521;-81
2024/03/05 15:13:12;;;;;;;10.60;6.63;;;;;;;11.57;88.56;98667.19;5132562;27;39922;-79
2024/03/05 15:15:39;;;;;;;10.30;6.77;;;;;;;11.57;88.25;98668.97;5128774;27;43306;-80
2024/03/05 15:18:07;;;;;;;10.57;7.53;;;;;;;11.45;88.85;98658.28;5135327;27;41553;-79
2024/03/05 15:20:35;;;;;;;9.30;6.90;;;;;;;11.54;89.25;98664.72;5120523;27;41358;-81
2024/03/05 15:23:02;;;;;;;9.67;7.13;;;;;;;11.57;88.90;98666.31;5153068;27;38820;-81
2024/03/05 15:25:34;;;;;;;12.67;8.60;;;;;;;11.61;89.05;98665.16;5145870;27;41553;-80
2024/03/05 15:28:03;;;;;;;10.93;7.77;;;;;;;11.65;88.95;98666.63;5150488;27;44003;-79
2024/03/05 15:30:32;;;;;;;11.90;7.17;;;;;;;11.69;89.04;98662.81;5130945;27;41246;-82
2024/03/05 15:33:00;;;;;;;12.20;8.17;;;;;;;11.58;88.43;98645.00;5141549;27;40393;-78
2024/03/05 15:35:28;;;;;;;12.57;8.30;;;;;;;11.72;88.31;98668.75;5134847;27;40732;-79
2024/03/05 15:37:57;;;;;;;13.63;8.83;;;;;;;11.70;88.19;98675.97;5135668;27;42760;-82
2024/03/05 15:40:25;;;;;;;15.40;9.47;;;;;;;11.71;88.46;98680.31;5136791;27;42446;-82
2024/03/05 15:42:56;;;;;;;14.37;9.60;;;;;;;11.67;89.01;98683.28;5152607;27;40142;-82
2024/03/05 15:45:25;;;;;;;14.13;10.30;;;;;;;11.61;89.04;98686.38;5141541;27;42087;-79
2024/03/05 15:47:53;;;;;;;14.87;10.63;;;;;;;11.59;89.03;98683.84;5149544;27;43944;-78
2024/03/05 15:50:23;;;;;;;13.27;10.27;;;;;;;11.57;88.94;98688.41;5131752;27;42383;-78
2024/03/05 15:52:52;;;;;;;14.67;9.37;;;;;;;11.56;89.20;98692.00;5139737;27;39851;-78
2024/03/05 15:55:21;;;;;;;14.07;9.57;;;;;;;11.56;88.64;98689.34;5150564;27;42681;-81
2024/03/05 15:57:57;;;;;;;13.50;9.57;;;;;;;11.60;88.60;98692.63;5143572;27;42909;-80
2024/03/05 16:00:29;;;;;;;18.57;11.17;;;;;;;11.59;88.50;98694.44;5136714;27;42396;-79
2024/03/05 16:03:02;;;;;;;12.70;9.40;;;;;;;11.56;88.46;98701.75;5141484;27;40516;-82
2024/03/05 16:05:31;;;;;;;15.53;10.57;;;;;;;11.50;87.93;98700.34;5132291;27;41549;-79
2024/03/05 16:07:59;;;;;;;17.83;11.10;;;;;;;11.39;87.93;98702.91;5149947;27;43759;-85
2024/03/05 16:10:28;;;;;;;16.57;11.53;;;;;;;11.34;88.29;98710.34;5145874;27;41318;-81
2024/03/05 16:12:58;;;;;;;14.37;10.63;;;;;;;11.29;88.10;98713.28;5132402;27;40767;-84
2024/03/05 16:15:27;;;;;;;16.20;10.83;;;;;;;11.21;88.06;98715.63;5131264;27;42403;-76
2024/03/05 16:17:56;;;;;;;13.90;9.87;;;;;;;11.14;88.19;98717.81;5148511;27;41886;-79
2024/03/05 16:20:24;;;;;;;15.63;10.37;;;;;;;11.11;88.66;98715.38;5147599;27;42857;-78
2024/03/05 16:22:53;;;;;;;15.87;10.47;;;;;;;11.06;88.65;98724.59;5140039;27;40138;-83
2024/03/05 16:25:24;;;;;;;16.83;10.23;;;;;;;11.00;88.67;98717.88;5151646;27;42850;-79
2024/03/05 16:27:52;;;;;;;13.67;10.10;;;;;;;10.98;88.59;98725.09;5138715;27;43833;-78
2024/03/05 16:30:22;;;;;;;12.97;9.10;;;;;;;10.95;89.01;98725.31;5118403;27;41512;-82
2024/03/05 16:32:52;;;;;;;16.90;10.23;;;;;;;10.94;88.76;98730.69;5142626;27;41113;-80
2024/03/05 16:35:20;;;;;;;15.03;9.33;;;;;;;10.93;88.75;98732.50;5130642;27;41507;-81
2024/03/05 16:37:49;;;;;;;10.80;8.00;;;;;;;10.93;88.48;98731.66;5147804;27;43815;-83
2024/03/05 16:40:19;;;;;;;12.83;8.73;;;;;;;10.95;88.19;98735.91;5130122;27;42052;-79
2024/03/05 16:42:50;;;;;;;12.57;9.13;;;;;;;10.94;88.25;98736.84;5139469;27;40265;-80
2024/03/05 16:45:17;;;;;;;13.60;9.27;;;;;;;10.87;88.49;98729.41;5151470;27;40356;-76
2024/03/05 16:47:46;;;;;;;13.37;9.37;;;;;;;10.93;88.58;98737.78;5117404;27;42932;-79
2024/03/05 16:50:16;;;;;;;13.73;9.47;;;;;;;10.91;89.24;98742.34;5117500;27;43048;-79
2024/03/05 16:52:45;;;;;;;13.40;9.53;;;;;;;10.88;89.00;98734.59;5147026;27;40095;-83
2024/03/05 16:55:14;;;;;;;13.53;9.83;;;;;;;10.87;89.11;98738.22;5135252;27;42840;-78
2024/03/05 16:57:43;;;;;;;13.00;9.63;;;;;;;10.80;89.05;98728.94;5129755;27;43454;-79
2024/03/05 17:00:16;;;;;;;11.97;9.30;;;;;;;10.83;89.25;98736.72;5151469;27;43825;-80
2024/03/05 17:02:48;;;;;;;12.23;8.87;;;;;;;10.80;89.23;98739.53;5125055;27;39013;-78
2024/03/05 17:05:18;;;;;;;15.50;10.10;;;;;;;10.62;89.23;98711.63;5124869;27;40747;-79
2024/03/05 17:07:49;;;;;;;12.83;9.73;;;;;;;10.76;89.17;98730.94;5151213;27;41419;-81
2024/03/05 17:10:22;;;;;;;11.37;8.50;;;;;;;10.77;88.95;98737.09;5138920;27;41739;-78
2024/03/05 17:12:50;;;;;;;14.07;9.20;;;;;;;10.75;89.57;98739.00;5150827;27;40495;-82